Time;durP1;ratioP1;P1;durP2;ratioP2;P2;SDS_P1;SDS_P2;PMS_P1;PMS_P2;Temp;Humidity;BMP_temperature;BMP_pressure;BME280_temperature;BME280_humidity;BME280_pressure;Samples;Min_cycle;Max_cycle;Signal;HPM_P1;HPM_P2
2021/12/12 00:02:45;;;;;;;19.97;7.07;;;4.60;99.90;;;;;;5019617;28;20500;-86
2021/12/12 00:05:13;;;;;;;14.97;6.77;;;4.60;99.90;;;;;;5035763;28;20029;-86
2021/12/12 00:07:39;;;;;;;15.20;7.23;;;4.60;99.90;;;;;;5053994;28;20025;-87
2021/12/12 00:10:12;;;;;;;21.80;7.53;;;4.60;99.90;;;;;;5035908;28;20401;-86
2021/12/12 00:12:43;;;;;;;16.00;7.17;;;4.60;99.90;;;;;;5052667;28;20405;-87
2021/12/12 00:15:12;;;;;;;16.73;6.73;;;4.60;99.90;;;;;;5019260;28;20036;-85
2021/12/12 00:17:38;;;;;;;15.83;6.57;;;4.60;99.90;;;;;;5035674;28;20021;-86
2021/12/12 00:20:07;;;;;;;16.40;6.80;;;4.60;99.90;;;;;;5036197;28;20116;-87
2021/12/12 00:22:32;;;;;;;15.97;7.17;;;4.70;99.90;;;;;;5035877;28;20033;-85
2021/12/12 00:24:58;;;;;;;18.07;7.47;;;4.60;99.90;;;;;;5035525;28;20025;-87
2021/12/12 00:27:25;;;;;;;19.23;6.97;;;4.60;99.90;;;;;;5035711;28;20454;-86
2021/12/12 00:29:51;;;;;;;16.40;7.13;;;4.60;99.90;;;;;;5034814;28;20412;-87
2021/12/12 00:32:19;;;;;;;17.77;6.67;;;4.60;99.90;;;;;;5035141;28;20441;-85
2021/12/12 00:34:54;;;;;;;16.57;7.00;;;4.60;99.90;;;;;;5034984;28;20088;-85
2021/12/12 00:37:21;;;;;;;14.40;7.00;;;4.60;99.90;;;;;;5034967;28;20025;-84
2021/12/12 00:39:52;;;;;;;17.20;6.83;;;4.70;99.90;;;;;;5034824;28;20033;-84
2021/12/12 00:42:24;;;;;;;16.70;6.43;;;4.70;99.90;;;;;;5018240;28;20033;-84
2021/12/12 00:44:57;;;;;;;17.63;6.83;;;4.70;99.90;;;;;;5034718;28;20032;-85
2021/12/12 00:47:23;;;;;;;16.23;6.60;;;4.60;99.90;;;;;;5034754;28;20025;-86
2021/12/12 00:49:50;;;;;;;14.47;6.73;;;4.70;99.90;;;;;;5034520;28;20037;-85
2021/12/12 00:52:18;;;;;;;15.70;6.37;;;4.70;99.90;;;;;;5051697;28;20482;-87
2021/12/12 00:54:45;;;;;;;12.67;6.13;;;4.60;99.90;;;;;;5035212;28;20039;-86
2021/12/12 00:57:15;;;;;;;18.20;6.93;;;4.70;99.90;;;;;;5035428;28;20033;-87
2021/12/12 00:59:44;;;;;;;13.30;6.00;;;4.70;99.90;;;;;;5051790;28;20037;-87
2021/12/12 01:02:15;;;;;;;13.77;6.10;;;4.70;99.90;;;;;;5035191;28;20485;-87
2021/12/12 01:04:45;;;;;;;12.40;5.87;;;4.70;99.90;;;;;;5018524;28;20040;-86
2021/12/12 01:07:16;;;;;;;19.03;6.80;;;4.80;99.90;;;;;;5035194;28;20033;-87
2021/12/12 01:09:48;;;;;;;18.03;6.47;;;4.70;99.90;;;;;;5018827;28;20087;-86
2021/12/12 01:12:19;;;;;;;14.80;6.17;;;4.70;99.90;;;;;;5019006;28;20033;-86
2021/12/12 01:14:51;;;;;;;15.87;6.27;;;4.70;99.90;;;;;;5034679;28;20037;-87
2021/12/12 01:17:37;;;;;;;15.80;6.87;;;4.80;99.90;;;;;;5034649;28;20082;-85
2021/12/12 01:20:21;;;;;;;15.97;6.77;;;4.80;99.90;;;;;;5051535;28;20516;-86
2021/12/12 01:22:50;;;;;;;14.33;6.30;;;4.80;99.90;;;;;;5037555;28;20056;-86
2021/12/12 01:25:30;;;;;;;15.13;6.20;;;4.70;99.90;;;;;;5037773;28;20036;-86
2021/12/12 01:27:56;;;;;;;11.90;5.83;;;4.80;99.90;;;;;;5034573;28;20056;-86
2021/12/12 01:30:25;;;;;;;14.80;5.93;;;4.80;99.90;;;;;;5034214;28;20553;-85
2021/12/12 01:32:57;;;;;;;14.27;6.17;;;4.80;99.90;;;;;;5050926;28;20044;-86
2021/12/12 01:35:24;;;;;;;14.30;5.37;;;4.80;99.90;;;;;;5017884;28;20428;-86
2021/12/12 01:40:42;;;;;;;18.15;5.90;;;4.80;99.90;;;;;;5035221;28;20029;-86
2021/12/12 01:43:20;;;;;;;13.93;5.82;;;4.80;99.90;;;;;;5038205;28;20060;-86
2021/12/12 01:45:51;;;;;;;13.37;5.97;;;4.80;99.90;;;;;;5038163;28;20029;-86
2021/12/12 01:48:30;;;;;;;14.70;5.50;;;4.80;99.90;;;;;;5038808;28;20397;-87
2021/12/12 01:51:00;;;;;;;16.77;5.88;;;4.80;99.90;;;;;;5022650;28;20033;-86
2021/12/12 01:53:30;;;;;;;15.27;5.77;;;4.70;99.90;;;;;;5038985;28;20037;-87
2021/12/12 01:56:17;;;;;;;14.00;5.63;;;4.70;99.90;;;;;;5038551;28;20549;-87
2021/12/12 01:58:44;;;;;;;11.93;5.40;;;4.70;99.90;;;;;;5038073;28;20033;-86
2021/12/12 02:01:15;;;;;;;17.20;5.33;;;4.80;99.90;;;;;;5038071;28;20029;-86
2021/12/12 02:03:46;;;;;;;13.97;5.30;;;4.80;99.90;;;;;;5021632;28;20029;-87
2021/12/12 02:06:13;;;;;;;11.30;4.90;;;4.70;99.90;;;;;;5021462;28;20543;-86
2021/12/12 02:08:41;;;;;;;12.83;4.90;;;4.80;99.90;;;;;;5037533;28;20036;-85
2021/12/12 02:11:15;;;;;;;13.97;5.73;;;4.70;99.90;;;;;;5037645;28;20080;-87
2021/12/12 02:13:45;;;;;;;15.53;5.23;;;4.80;99.90;;;;;;5038018;28;20028;-86
2021/12/12 02:16:13;;;;;;;15.30;5.80;;;4.80;99.90;;;;;;5021204;28;20393;-87
2021/12/12 02:18:49;;;;;;;9.93;4.60;;;4.80;99.90;;;;;;5037652;28;20029;-86
2021/12/12 02:21:26;;;;;;;11.70;4.80;;;4.80;99.90;;;;;;5054516;28;20037;-86
2021/12/12 02:35:31;;;;;;;9.57;4.18;;;4.90;99.90;;;;;;5054162;28;20032;-86
2021/12/12 02:37:59;;;;;;;11.73;4.53;;;4.90;99.90;;;;;;5037330;28;20029;-86
2021/12/12 02:40:38;;;;;;;11.77;4.07;;;4.90;99.90;;;;;;5037369;28;20040;-86
2021/12/12 02:43:05;;;;;;;9.47;4.60;;;4.80;99.90;;;;;;5037253;28;20520;-86
2021/12/12 02:45:33;;;;;;;10.80;4.20;;;4.90;99.90;;;;;;5053965;28;20032;-86
2021/12/12 02:48:02;;;;;;;9.67;4.20;;;4.90;99.90;;;;;;5037237;28;20036;-86
2021/12/12 02:50:41;;;;;;;11.47;4.90;;;4.90;99.90;;;;;;5053894;28;20480;-86
2021/12/12 02:53:18;;;;;;;11.13;4.25;;;4.90;99.90;;;;;;5036463;28;20032;-86
2021/12/12 02:55:50;;;;;;;10.53;4.23;;;4.90;99.90;;;;;;5054011;28;20095;-86
2021/12/12 02:58:20;;;;;;;12.67;4.37;;;4.90;99.90;;;;;;5036925;28;20037;-86
2021/12/12 03:00:49;;;;;;;;;;;5.00;99.90;;;;;;5037327;28;20654;-86
2021/12/12 03:03:16;;;;;;;11.63;4.07;;;5.00;99.90;;;;;;5037023;28;19958;-86
2021/12/12 03:05:45;;;;;;;10.60;3.83;;;5.00;99.90;;;;;;5037033;28;20029;-86
2021/12/12 03:08:13;;;;;;;12.18;3.75;;;5.00;99.90;;;;;;5036950;28;20024;-86
2021/12/12 03:10:42;;;;;;;9.13;3.90;;;5.00;99.90;;;;;;5037454;28;20037;-86
2021/12/12 03:13:09;;;;;;;10.57;4.20;;;5.00;99.90;;;;;;5039177;28;20127;-86
2021/12/12 03:15:39;;;;;;;13.90;4.33;;;5.00;99.90;;;;;;5038934;28;20531;-85
2021/12/12 03:18:11;;;;;;;11.50;4.20;;;5.00;99.90;;;;;;5038147;28;20064;-87
2021/12/12 03:20:42;;;;;;;11.30;3.87;;;5.10;99.90;;;;;;5055190;28;20087;-86
2021/12/12 03:23:10;;;;;;;10.43;3.80;;;5.10;99.90;;;;;;5021018;28;20071;-86
2021/12/12 03:25:39;;;;;;;10.93;4.17;;;5.10;99.90;;;;;;5036551;28;20128;-86
2021/12/12 03:28:06;;;;;;;;;;;5.10;99.90;;;;;;5037152;28;20124;-87
2021/12/12 03:30:32;;;;;;;10.63;4.07;;;5.10;99.90;;;;;;5020256;28;19909;-86
2021/12/12 03:32:58;;;;;;;10.87;4.00;;;5.10;99.90;;;;;;5036368;28;20035;-86
2021/12/12 03:35:24;;;;;;;13.53;3.67;;;5.10;99.90;;;;;;5036042;28;20123;-86
2021/12/12 03:37:50;;;;;;;14.93;4.30;;;5.10;99.90;;;;;;5035818;28;20033;-86
2021/12/12 03:40:23;;;;;;;12.37;4.00;;;5.10;99.90;;;;;;5052721;28;20017;-86
2021/12/12 03:42:53;;;;;;;12.57;4.03;;;5.10;99.90;;;;;;5035868;28;20048;-86
2021/12/12 03:45:19;;;;;;;;;;;5.10;99.90;;;;;;5052785;28;20079;-85
2021/12/12 03:48:13;;;;;;;9.23;4.10;;;5.20;99.90;;;;;;5035770;28;19919;-86
2021/12/12 03:50:43;;;;;;;11.33;4.33;;;5.10;99.90;;;;;;5029921;28;20041;-85
2021/12/12 03:53:10;;;;;;;12.67;4.60;;;5.10;99.90;;;;;;5035745;28;20047;-85
2021/12/12 03:55:38;;;;;;;11.27;4.00;;;5.10;99.90;;;;;;5035685;28;20592;-85
2021/12/12 03:58:06;;;;;;;12.90;4.80;;;5.10;99.90;;;;;;5035526;28;20033;-85
2021/12/12 04:00:46;;;;;;;13.93;4.20;;;5.10;99.90;;;;;;5035473;28;20089;-87
2021/12/12 04:03:13;;;;;;;12.00;4.00;;;5.10;99.90;;;;;;5052458;28;20029;-86
2021/12/12 04:05:44;;;;;;;14.53;4.47;;;5.10;99.90;;;;;;5035525;28;20053;-88
2021/12/12 04:08:10;;;;;;;10.40;4.10;;;5.10;99.90;;;;;;5018954;28;20528;-87
2021/12/12 04:10:36;;;;;;;12.37;4.03;;;5.10;99.90;;;;;;5035514;28;20065;-87
2021/12/12 04:13:02;;;;;;;13.23;4.70;;;5.10;99.90;;;;;;5052358;28;20052;-86
2021/12/12 04:15:28;;;;;;;13.60;4.17;;;5.10;99.90;;;;;;5035397;28;20487;-86
2021/12/12 04:17:54;;;;;;;13.23;4.60;;;5.10;99.90;;;;;;5051853;28;20104;-85
2021/12/12 04:20:25;;;;;;;9.87;4.20;;;5.20;99.90;;;;;;5051992;28;20036;-86
2021/12/12 04:22:51;;;;;;;10.77;4.00;;;5.20;99.90;;;;;;5018836;28;20036;-87
2021/12/12 04:25:17;;;;;;;11.30;4.27;;;5.30;99.90;;;;;;5035564;28;20078;-85
2021/12/12 04:27:44;;;;;;;12.33;4.13;;;5.20;99.90;;;;;;5035401;28;20425;-86
2021/12/12 04:30:13;;;;;;;11.67;4.13;;;5.20;99.90;;;;;;5035292;28;20032;-86
2021/12/12 04:32:40;;;;;;;9.95;4.00;;;5.20;99.90;;;;;;5035111;28;20057;-86
2021/12/12 04:35:18;;;;;;;12.60;4.07;;;5.20;99.90;;;;;;5035128;28;20072;-86
2021/12/12 04:37:45;;;;;;;10.70;3.80;;;5.20;99.90;;;;;;5018932;28;20492;-87
2021/12/12 04:40:14;;;;;;;11.27;3.90;;;5.20;99.90;;;;;;5042482;28;20037;-87
2021/12/12 04:42:40;;;;;;;14.15;4.57;;;5.20;99.90;;;;;;5022820;28;20029;-87
2021/12/12 04:45:19;;;;;;;7.60;3.63;;;5.20;99.90;;;;;;5013570;28;20033;-86
2021/12/12 04:50:59;;;;;;;13.90;4.13;;;5.20;99.90;;;;;;5013383;28;20099;-87
2021/12/12 04:53:33;;;;;;;14.63;4.33;;;5.10;99.90;;;;;;5011532;28;20514;-86
2021/12/12 04:56:11;;;;;;;10.27;3.87;;;5.20;99.90;;;;;;5044062;28;20553;-86
2021/12/12 04:58:41;;;;;;;14.13;5.17;;;5.10;99.90;;;;;;5038641;28;20469;-86
2021/12/12 05:01:18;;;;;;;15.10;4.67;;;5.20;99.90;;;;;;5038025;28;20071;-86
2021/12/12 05:03:56;;;;;;;16.07;4.30;;;5.20;99.90;;;;;;5037797;28;20033;-86
2021/12/12 05:06:46;;;;;;;14.90;4.40;;;5.20;99.90;;;;;;5034600;28;20033;-87
2021/12/12 05:09:23;;;;;;;16.03;4.53;;;5.10;99.90;;;;;;5043798;28;20024;-86
2021/12/12 05:12:12;;;;;;;13.67;4.97;;;5.20;99.90;;;;;;5026552;28;20149;-86
2021/12/12 05:14:45;;;;;;;10.27;4.13;;;5.20;99.90;;;;;;5040858;28;20159;-86
2021/12/12 05:17:19;;;;;;;12.77;4.90;;;5.20;99.90;;;;;;5030390;28;20037;-86
2021/12/12 05:19:59;;;;;;;10.70;4.30;;;5.20;99.90;;;;;;5040134;28;20029;-86
2021/12/12 05:22:36;;;;;;;13.80;4.60;;;5.20;99.90;;;;;;5055366;28;20075;-85
2021/12/12 05:25:09;;;;;;;15.23;4.60;;;5.20;99.90;;;;;;5054614;28;20028;-86
2021/12/12 05:27:37;;;;;;;12.60;4.30;;;5.20;99.90;;;;;;5045865;28;20041;-86
2021/12/12 05:30:16;;;;;;;13.87;5.17;;;5.20;99.90;;;;;;5037456;28;20064;-86
2021/12/12 05:32:43;;;;;;;13.73;4.18;;;5.30;99.90;;;;;;5027003;28;20033;-86
2021/12/12 05:35:11;;;;;;;14.33;5.30;;;5.30;99.90;;;;;;5037758;28;20056;-86
2021/12/12 05:37:39;;;;;;;17.07;5.30;;;5.20;99.90;;;;;;5054937;28;20035;-86
2021/12/12 05:40:08;;;;;;;15.47;6.13;;;5.20;99.90;;;;;;5036972;28;20033;-86
2021/12/12 05:42:34;;;;;;;;;;;5.20;99.90;;;;;;5053658;28;20067;-86
2021/12/12 05:45:01;;;;;;;18.67;5.30;;;5.20;99.90;;;;;;5052363;28;20314;-86
2021/12/12 05:47:27;;;;;;;14.03;4.80;;;5.20;99.90;;;;;;5050548;28;20495;-86
2021/12/12 05:49:53;;;;;;;13.50;4.97;;;5.20;99.90;;;;;;5059403;28;20033;-87
2021/12/12 05:52:22;;;;;;;13.63;5.60;;;5.20;99.90;;;;;;5066215;28;20182;-86
2021/12/12 05:54:50;;;;;;;12.55;4.95;;;5.30;99.90;;;;;;5052303;28;20154;-87
2021/12/12 05:57:22;;;;;;;13.33;5.20;;;5.20;99.90;;;;;;5052993;28;20033;-86
2021/12/12 05:59:49;;;;;;;15.17;5.60;;;5.20;99.90;;;;;;5035003;28;20044;-87
2021/12/12 06:02:15;;;;;;;14.13;5.20;;;5.20;99.90;;;;;;5055072;28;20131;-87
2021/12/12 06:04:41;;;;;;;17.40;5.93;;;5.20;99.90;;;;;;5048739;28;20168;-86
2021/12/12 06:07:16;;;;;;;17.23;6.23;;;5.20;99.90;;;;;;5015457;28;20514;-85
2021/12/12 06:09:44;;;;;;;15.23;7.00;;;5.20;99.90;;;;;;5048024;28;20371;-85
2021/12/12 06:12:10;;;;;;;14.73;6.20;;;5.20;99.90;;;;;;5048852;28;20048;-86
2021/12/12 06:14:37;;;;;;;15.63;6.40;;;5.20;99.90;;;;;;5051120;28;20095;-87
2021/12/12 06:17:08;;;;;;;28.70;10.10;;;5.20;99.90;;;;;;5049297;28;20037;-86
2021/12/12 06:19:34;;;;;;;17.97;7.43;;;6.70;99.90;;;;;;5049807;28;20039;-86
2021/12/12 06:22:01;;;;;;;14.93;5.17;;;6.80;99.90;;;;;;5050573;28;20477;-86
2021/12/12 06:24:28;;;;;;;12.27;5.50;;;6.60;99.90;;;;;;5048764;28;20143;-85
2021/12/12 06:26:56;;;;;;;18.63;6.70;;;6.40;99.90;;;;;;5049506;28;20092;-86
2021/12/12 06:29:23;;;;;;;20.27;9.83;;;6.30;99.90;;;;;;5052049;28;20064;-86
2021/12/12 06:31:52;;;;;;;15.70;7.57;;;6.10;99.90;;;;;;5052439;28;20056;-86
2021/12/12 06:34:18;;;;;;;;;;;6.00;99.90;;;;;;5052903;28;20037;-85
2021/12/12 06:36:46;;;;;;;8.93;5.00;;;5.90;99.90;;;;;;5052562;28;19962;-85
2021/12/12 06:39:14;;;;;;;11.57;5.30;;;5.80;99.90;;;;;;5051870;28;20036;-85
2021/12/12 06:41:41;;;;;;;9.97;5.77;;;5.70;99.90;;;;;;5062438;28;20116;-86
2021/12/12 06:44:09;;;;;;;14.97;5.87;;;5.70;99.90;;;;;;5055702;28;20025;-85
2021/12/12 06:46:37;;;;;;;10.23;5.60;;;5.60;99.90;;;;;;5039286;28;20035;-86
2021/12/12 06:49:05;;;;;;;13.17;5.73;;;5.50;99.90;;;;;;5055274;28;20070;-86
2021/12/12 06:51:34;;;;;;;13.80;6.03;;;5.50;99.90;;;;;;5055685;28;20511;-86
2021/12/12 06:54:01;;;;;;;12.95;6.05;;;5.50;99.90;;;;;;5055766;28;20396;-85
2021/12/12 06:56:28;;;;;;;12.37;6.30;;;5.50;99.90;;;;;;5034059;28;20033;-86
2021/12/12 06:58:58;;;;;;;13.60;5.77;;;5.50;99.90;;;;;;5060083;28;20029;-85
2021/12/12 07:01:28;;;;;;;12.05;5.82;;;5.40;99.90;;;;;;5040180;28;20106;-85
2021/12/12 07:03:56;;;;;;;11.67;5.63;;;5.50;99.90;;;;;;5055605;28;20131;-85
2021/12/12 07:06:24;;;;;;;12.77;5.90;;;5.40;99.90;;;;;;5039025;28;20028;-85
2021/12/12 07:08:50;;;;;;;11.50;5.60;;;5.40;99.90;;;;;;5055135;28;20036;-85
2021/12/12 07:11:19;;;;;;;11.53;5.40;;;5.40;99.90;;;;;;5038909;28;20105;-85
2021/12/12 07:13:47;;;;;;;11.52;5.90;;;5.40;99.90;;;;;;5039107;28;20032;-85
2021/12/12 07:16:14;;;;;;;12.90;6.20;;;5.40;99.90;;;;;;5072253;28;20428;-85
2021/12/12 07:18:40;;;;;;;11.00;5.60;;;5.40;99.90;;;;;;5039046;28;20078;-86
2021/12/12 07:21:11;;;;;;;11.10;5.70;;;5.40;99.90;;;;;;5055392;28;20389;-86
2021/12/12 07:23:39;;;;;;;11.20;5.90;;;5.40;99.90;;;;;;5073245;28;20362;-85
2021/12/12 07:26:08;;;;;;;9.97;5.50;;;5.40;99.90;;;;;;5072065;28;20056;-85
2021/12/12 07:28:35;;;;;;;8.43;5.38;;;5.50;99.90;;;;;;5038368;28;20024;-86
2021/12/12 07:31:18;;;;;;;12.80;6.47;;;5.40;99.90;;;;;;5038950;28;20085;-86
2021/12/12 07:33:47;;;;;;;12.77;6.10;;;5.40;99.90;;;;;;5022599;28;20044;-86
2021/12/12 07:36:15;;;;;;;9.52;5.88;;;5.50;99.90;;;;;;5055358;28;20024;-86
2021/12/12 07:38:47;;;;;;;11.77;6.60;;;5.50;99.90;;;;;;5054701;28;20044;-86
2021/12/12 07:41:14;;;;;;;11.77;5.97;;;5.50;99.90;;;;;;5055208;28;20492;-86
2021/12/12 07:43:39;;;;;;;11.60;6.10;;;5.40;99.90;;;;;;5054969;28;20108;-85
2021/12/12 07:46:06;;;;;;;12.27;6.50;;;5.50;99.90;;;;;;5055315;28;20454;-85
2021/12/12 07:48:33;;;;;;;9.40;6.07;;;5.50;99.90;;;;;;5038548;28;20044;-85
2021/12/12 07:50:59;;;;;;;13.37;6.63;;;5.50;99.90;;;;;;5038807;28;20032;-86
2021/12/12 07:53:28;;;;;;;12.27;6.47;;;5.50;99.90;;;;;;5071584;28;20131;-85
2021/12/12 07:55:55;;;;;;;10.45;6.72;;;5.50;99.90;;;;;;5038538;28;20515;-85
2021/12/12 07:58:21;;;;;;;14.23;6.80;;;5.50;99.90;;;;;;5038700;28;20036;-85
2021/12/12 08:00:50;;;;;;;15.13;7.57;;;5.50;99.90;;;;;;5038158;28;20470;-86
2021/12/12 08:03:21;;;;;;;14.88;6.78;;;5.60;99.90;;;;;;5038529;28;20056;-85
2021/12/12 08:05:49;;;;;;;13.17;7.93;;;5.50;99.90;;;;;;5055223;28;20055;-86
2021/12/12 08:08:15;;;;;;;12.17;7.57;;;5.50;99.90;;;;;;5071406;28;20031;-85
2021/12/12 08:10:43;;;;;;;10.30;6.40;;;5.50;99.90;;;;;;5037995;28;20142;-86
2021/12/12 08:13:12;;;;;;;11.23;7.10;;;5.50;99.90;;;;;;5057014;28;20051;-86
2021/12/12 08:15:38;;;;;;;11.80;6.57;;;5.50;99.90;;;;;;5041228;28;20036;-85
2021/12/12 08:18:07;;;;;;;10.90;6.53;;;5.50;99.90;;;;;;5074270;28;20469;-86
2021/12/12 08:20:34;;;;;;;13.50;7.05;;;5.60;99.90;;;;;;5054691;28;20465;-86
2021/12/12 08:23:02;;;;;;;12.77;7.13;;;5.60;99.90;;;;;;5037757;28;20035;-87
2021/12/12 08:25:28;;;;;;;10.27;6.97;;;5.60;99.90;;;;;;5053808;28;20032;-89
2021/12/12 08:27:58;;;;;;;11.73;7.53;;;5.60;99.90;;;;;;5054503;28;20027;-86
2021/12/12 08:30:24;;;;;;;10.57;7.27;;;5.60;99.90;;;;;;5037097;28;20021;-86
2021/12/12 08:32:51;;;;;;;11.70;7.00;;;5.60;99.90;;;;;;5034492;28;20049;-86
2021/12/12 08:35:19;;;;;;;10.10;6.93;;;5.60;99.90;;;;;;5054555;28;20048;-86
2021/12/12 08:37:46;;;;;;;11.37;7.00;;;5.70;99.90;;;;;;5071447;28;20447;-85
2021/12/12 08:40:22;;;;;;;12.70;7.50;;;5.70;99.90;;;;;;5038705;28;20112;-87
2021/12/12 08:42:50;;;;;;;12.03;6.80;;;5.70;99.90;;;;;;5040461;28;20020;-84
2021/12/12 08:45:21;;;;;;;12.57;7.57;;;5.80;99.90;;;;;;5057079;28;20548;-86
2021/12/12 08:47:49;;;;;;;10.80;7.03;;;5.80;99.90;;;;;;5056711;28;20478;-84
2021/12/12 08:50:19;;;;;;;13.03;7.60;;;5.80;99.90;;;;;;5074590;28;20036;-84
2021/12/12 08:52:47;;;;;;;12.53;7.07;;;5.80;99.90;;;;;;5057374;28;20096;-85
2021/12/12 08:55:30;;;;;;;10.90;7.80;;;5.80;99.90;;;;;;5058057;28;20422;-85
2021/12/12 08:58:04;;;;;;;12.10;7.43;;;5.80;99.90;;;;;;5040710;28;20024;-85
2021/12/12 09:00:37;;;;;;;11.33;7.70;;;5.80;99.90;;;;;;5058377;28;20199;-85
2021/12/12 09:03:04;;;;;;;12.07;7.43;;;5.80;99.90;;;;;;5045479;28;20036;-86
2021/12/12 09:05:35;;;;;;;11.50;6.73;;;5.90;99.90;;;;;;5060889;28;20067;-84
2021/12/12 09:08:11;;;;;;;11.37;7.00;;;5.90;99.90;;;;;;5059668;28;20036;-84
2021/12/12 09:10:42;;;;;;;12.10;7.23;;;5.90;99.90;;;;;;5041009;28;20052;-84
2021/12/12 09:13:11;;;;;;;11.47;6.67;;;5.90;99.90;;;;;;5041825;28;20044;-84
2021/12/12 09:15:54;;;;;;;12.13;6.60;;;5.90;99.90;;;;;;5041571;28;20033;-84
2021/12/12 09:18:27;;;;;;;11.40;7.27;;;6.00;99.90;;;;;;5075426;28;20059;-84
2021/12/12 09:21:02;;;;;;;10.70;7.00;;;6.00;99.90;;;;;;5042511;28;20422;-86
2021/12/12 09:23:39;;;;;;;11.20;7.03;;;6.00;99.90;;;;;;5060295;28;20028;-85
2021/12/12 09:26:08;;;;;;;11.20;7.13;;;6.00;99.90;;;;;;5080115;28;20025;-84
2021/12/12 09:28:50;;;;;;;14.27;7.65;;;6.00;99.90;;;;;;5041596;28;20043;-85
2021/12/12 09:31:27;;;;;;;15.07;8.00;;;6.00;99.90;;;;;;5076525;28;20064;-86
2021/12/12 09:34:12;;;;;;;14.07;8.80;;;6.00;99.90;;;;;;5042340;28;20039;-84
2021/12/12 09:36:43;;;;;;;17.03;8.17;;;6.10;99.90;;;;;;5077812;28;20031;-86
2021/12/12 09:39:17;;;;;;;15.10;8.40;;;6.10;99.90;;;;;;5059536;28;20096;-84
2021/12/12 09:41:46;;;;;;;15.53;8.80;;;6.10;99.90;;;;;;5059105;28;20033;-84
2021/12/12 09:44:30;;;;;;;15.23;9.00;;;6.10;99.90;;;;;;5058254;28;20028;-84
2021/12/12 09:52:55;;;;;;;14.83;9.23;;;6.20;99.90;;;;;;5078846;28;20077;-84
2021/12/12 09:55:32;;;;;;;15.27;8.50;;;6.20;99.90;;;;;;5075773;28;20039;-85
2021/12/12 09:58:04;;;;;;;15.30;7.93;;;6.20;99.90;;;;;;5066050;28;20088;-85
2021/12/12 10:00:49;;;;;;;16.57;8.70;;;6.30;99.90;;;;;;5078049;28;20111;-87
2021/12/12 10:03:31;;;;;;;12.27;7.90;;;6.30;99.90;;;;;;5067557;28;20028;-90
2021/12/12 10:06:15;;;;;;;13.47;7.70;;;6.30;99.90;;;;;;5086313;28;20059;-85
2021/12/12 10:08:58;;;;;;;14.87;8.40;;;6.30;99.90;;;;;;5082891;28;20032;-89
2021/12/12 10:11:37;;;;;;;13.60;7.60;;;6.30;99.90;;;;;;5052995;28;20109;-86
2021/12/12 10:14:16;;;;;;;13.85;7.88;;;6.40;99.90;;;;;;5084962;28;20033;-86
2021/12/12 10:16:51;;;;;;;10.10;7.33;;;6.40;99.90;;;;;;5070539;28;20040;-86
2021/12/12 10:19:19;;;;;;;15.20;7.67;;;6.40;99.90;;;;;;5085033;28;20523;-87
2021/12/12 10:21:56;;;;;;;16.13;7.70;;;6.40;99.90;;;;;;5067079;28;20097;-88
2021/12/12 10:24:35;;;;;;;10.63;6.83;;;6.40;99.90;;;;;;5070930;28;20035;-87
2021/12/12 10:27:24;;;;;;;15.43;8.25;;;6.40;99.90;;;;;;5087029;28;20457;-89
2021/12/12 10:29:57;;;;;;;11.93;6.28;;;6.40;99.90;;;;;;5039967;28;20036;-90
2021/12/12 10:32:29;;;;;;;12.27;6.63;;;6.40;99.90;;;;;;5056673;28;20032;-85
2021/12/12 10:35:01;;;;;;;12.53;7.07;;;6.40;99.90;;;;;;5055741;28;20102;-85
2021/12/12 10:37:35;;;;;;;13.00;7.00;;;6.40;99.90;;;;;;5055843;28;20033;-85
2021/12/12 10:40:15;;;;;;;14.70;6.90;;;6.50;99.90;;;;;;5056228;28;20024;-85
2021/12/12 10:42:52;;;;;;;14.33;6.53;;;6.40;99.90;;;;;;5039758;28;20024;-83
2021/12/12 10:45:24;;;;;;;13.73;6.33;;;6.40;99.90;;;;;;5039530;28;20206;-86
2021/12/12 10:48:18;;;;;;;14.77;6.10;;;6.50;99.90;;;;;;5039038;28;20021;-86
2021/12/12 10:50:46;;;;;;;12.87;6.57;;;6.50;99.90;;;;;;5070190;28;20062;-88
2021/12/12 10:53:32;;;;;;;12.48;6.53;;;6.50;99.90;;;;;;5056012;28;20032;-87
2021/12/12 10:56:15;;;;;;;12.00;5.77;;;6.50;99.90;;;;;;5072453;28;20092;-86
2021/12/12 10:58:54;;;;;;;10.90;6.17;;;6.50;99.90;;;;;;5054634;28;20050;-85
2021/12/12 11:01:32;;;;;;;11.98;6.07;;;6.50;99.90;;;;;;5055148;28;20108;-85
2021/12/12 11:04:10;;;;;;;13.23;5.67;;;6.60;99.90;;;;;;5055499;28;20033;-88
2021/12/12 11:06:39;;;;;;;13.57;6.13;;;6.60;99.90;;;;;;5049934;28;20029;-89
2021/12/12 11:09:22;;;;;;;12.60;6.80;;;6.60;99.90;;;;;;5031230;28;20036;-88
2021/12/12 11:12:13;;;;;;;9.90;6.37;;;6.60;99.90;;;;;;5055165;28;20034;-88
2021/12/12 11:15:13;;;;;;;11.70;6.57;;;6.60;99.90;;;;;;5071047;28;20048;-87
2021/12/12 11:17:50;;;;;;;11.02;6.68;;;6.60;99.90;;;;;;5071245;28;20672;-87
2021/12/12 11:20:24;;;;;;;13.47;7.00;;;6.60;99.90;;;;;;5071557;28;20040;-89
2021/12/12 11:22:59;;;;;;;12.67;6.90;;;6.70;99.90;;;;;;5055056;28;20102;-88
2021/12/12 11:25:35;;;;;;;14.27;6.90;;;6.70;99.90;;;;;;5037992;28;20036;-88
2021/12/12 11:28:16;;;;;;;14.03;7.40;;;6.70;99.90;;;;;;5037998;28;20032;-87
2021/12/12 11:30:52;;;;;;;14.13;6.90;;;6.70;99.90;;;;;;5054196;28;20115;-87
2021/12/12 11:33:20;;;;;;;12.97;7.30;;;6.70;99.90;;;;;;5071843;28;20056;-87
2021/12/12 11:35:50;;;;;;;15.83;7.47;;;6.80;99.90;;;;;;5038072;28;20024;-86
2021/12/12 11:38:48;;;;;;;13.33;7.63;;;6.80;99.90;;;;;;5056610;28;20024;-84
2021/12/12 11:41:42;;;;;;;13.83;7.93;;;6.80;99.90;;;;;;5080856;28;20021;-84
2021/12/12 11:44:26;;;;;;;15.27;7.60;;;6.90;99.90;;;;;;5058266;28;20433;-89
2021/12/12 11:47:14;;;;;;;14.27;7.57;;;6.90;99.90;;;;;;5055048;28;20071;-89
2021/12/12 11:50:06;;;;;;;13.07;7.13;;;6.90;99.90;;;;;;5054780;28;20044;-88
2021/12/12 11:52:53;;;;;;;12.93;7.57;;;6.90;99.90;;;;;;5073206;28;20499;-86
2021/12/12 11:55:26;;;;;;;13.17;7.50;;;6.90;99.90;;;;;;5054288;28;20505;-84
2021/12/12 11:58:07;;;;;;;12.50;7.40;;;7.00;99.90;;;;;;5054874;28;20096;-84
2021/12/12 12:00:46;;;;;;;12.97;7.77;;;6.90;99.90;;;;;;5072519;28;20021;-84
2021/12/12 12:03:43;;;;;;;13.02;7.53;;;6.90;99.90;;;;;;5054794;28;20469;-84
2021/12/12 12:06:11;;;;;;;12.70;7.77;;;6.90;99.90;;;;;;5071828;28;20050;-86
2021/12/12 12:08:49;;;;;;;14.90;8.30;;;6.90;99.90;;;;;;5071093;28;20168;-91
2021/12/12 12:11:43;;;;;;;13.70;7.67;;;6.80;99.90;;;;;;5054296;28;20282;-85
2021/12/12 12:14:16;;;;;;;15.70;8.50;;;6.80;99.90;;;;;;5054725;28;20036;-90
2021/12/12 12:17:00;;;;;;;11.33;7.50;;;6.80;99.90;;;;;;5054539;28;20036;-88
2021/12/12 12:19:44;;;;;;;10.87;7.37;;;6.80;99.90;;;;;;5053636;28;20041;-88
2021/12/12 12:22:50;;;;;;;12.23;7.73;;;6.80;99.90;;;;;;5054540;28;20074;-90
2021/12/12 12:28:34;;;;;;;13.10;8.20;;;6.80;99.90;;;;;;5070113;28;20037;-88
2021/12/12 12:31:28;;;;;;;12.67;8.27;;;6.80;99.90;;;;;;5070265;28;20066;-87
2021/12/12 12:34:31;;;;;;;13.60;8.10;;;6.80;99.90;;;;;;5053586;28;20063;-88
2021/12/12 12:37:27;;;;;;;15.93;8.70;;;6.80;99.90;;;;;;5070731;28;20062;-85
2021/12/12 12:40:31;;;;;;;12.00;8.50;;;6.80;99.90;;;;;;5052586;28;20037;-87
2021/12/12 12:43:34;;;;;;;12.57;7.90;;;6.80;99.90;;;;;;5053616;28;20028;-86
2021/12/12 12:46:18;;;;;;;10.90;8.00;;;6.80;99.90;;;;;;5053997;28;20534;-86
2021/12/12 12:49:12;;;;;;;12.20;8.50;;;6.90;99.90;;;;;;5053548;28;20036;-87
2021/12/12 12:51:56;;;;;;;12.20;8.23;;;6.90;99.90;;;;;;5053617;28;20051;-87
2021/12/12 12:54:42;;;;;;;11.00;8.07;;;6.90;99.90;;;;;;5069908;28;20029;-85
2021/12/12 12:57:21;;;;;;;13.63;8.53;;;6.90;99.90;;;;;;5037738;28;20039;-85
2021/12/12 12:59:55;;;;;;;;;;;6.90;99.90;;;;;;5037954;28;20051;-87
2021/12/12 13:02:43;;;;;;;12.50;8.73;;;6.90;99.90;;;;;;5053771;28;20288;-85
2021/12/12 13:05:21;;;;;;;12.93;9.27;;;6.90;99.90;;;;;;5019021;28;20033;-82
2021/12/12 13:08:24;;;;;;;12.37;9.37;;;6.90;99.90;;;;;;5056938;28;20021;-86
2021/12/12 13:10:53;;;;;;;13.63;9.07;;;6.90;99.90;;;;;;5054030;28;20033;-86
2021/12/12 13:13:30;;;;;;;13.27;8.80;;;6.90;99.90;;;;;;5053261;28;20033;-85
2021/12/12 13:16:00;;;;;;;16.03;9.23;;;7.00;99.90;;;;;;5073307;28;20474;-82
2021/12/12 13:18:42;;;;;;;16.30;9.73;;;7.00;99.90;;;;;;5096041;28;20032;-83
2021/12/12 13:21:34;;;;;;;13.93;9.30;;;7.20;99.90;;;;;;5058383;28;20073;-85
2021/12/12 13:24:02;;;;;;;14.37;9.67;;;7.10;99.90;;;;;;5058178;28;20053;-83
2021/12/12 13:27:13;;;;;;;18.73;10.27;;;7.20;99.90;;;;;;5076186;28;20056;-83
2021/12/12 13:29:45;;;;;;;15.33;10.37;;;7.20;99.90;;;;;;5074458;28;20110;-85
2021/12/12 13:32:35;;;;;;;14.27;10.37;;;7.30;99.90;;;;;;5075699;28;20469;-85
2021/12/12 13:35:07;;;;;;;13.67;9.67;;;7.30;99.90;;;;;;5075579;28;20036;-85
2021/12/12 13:37:38;;;;;;;12.90;9.90;;;7.40;99.90;;;;;;5075784;28;20036;-85
2021/12/12 13:40:11;;;;;;;13.10;9.20;;;7.40;99.90;;;;;;5060598;28;20111;-86
2021/12/12 13:43:22;;;;;;;12.70;9.03;;;7.30;99.90;;;;;;5077431;28;20024;-86
2021/12/12 13:46:06;;;;;;;12.27;9.20;;;7.30;99.90;;;;;;5073114;28;20085;-86
2021/12/12 13:48:55;;;;;;;14.60;9.73;;;7.30;99.90;;;;;;5076992;28;20031;-86